Time;durP1;ratioP1;P1;durP2;ratioP2;P2;SDS_P1;SDS_P2;PMS_P1;PMS_P2;Temp;Humidity;BMP_temperature;BMP_pressure;BME280_temperature;BME280_humidity;BME280_pressure;Samples;Min_cycle;Max_cycle;Signal;HPM_P1;HPM_P2
2023/07/14 00:01:37;;;;;;;0.98;0.98;;;23.70;89.90;;;;;;5039259;28;20222;-75
2023/07/14 00:04:13;;;;;;;0.10;0.10;;;23.50;90.50;;;;;;5039067;28;20013;-74
2023/07/14 00:06:41;;;;;;;0.10;0.10;;;23.30;91.40;;;;;;5039185;28;20055;-75
2023/07/14 00:09:21;;;;;;;0.10;0.10;;;23.20;91.40;;;;;;5038971;28;20725;-84
2023/07/14 00:11:47;;;;;;;0.10;0.10;;;22.80;91.10;;;;;;5037525;28;20033;-77
2023/07/14 00:14:14;;;;;;;0.10;0.10;;;22.40;91.70;;;;;;5038967;28;20506;-72
2023/07/14 00:16:40;;;;;;;0.10;0.10;;;22.20;92.10;;;;;;5039185;28;20320;-75
2023/07/14 00:19:12;;;;;;;0.10;0.10;;;18.90;92.00;;;;;;5039058;28;20025;-78
2023/07/14 00:21:38;;;;;;;0.10;0.10;;;21.90;92.80;;;;;;5038743;28;20479;-75
2023/07/14 00:24:15;;;;;;;0.08;0.08;;;22.20;93.70;;;;;;5039035;28;20028;-75
2023/07/14 00:26:43;;;;;;;0.30;0.30;;;20.30;93.10;;;;;;5038807;28;20025;-76
2023/07/14 00:29:26;;;;;;;0.10;0.10;;;22.20;93.10;;;;;;5038458;28;20028;-80
2023/07/14 00:31:52;;;;;;;0.10;0.10;;;22.40;93.00;;;;;;5038396;28;20037;-77
2023/07/14 00:34:18;;;;;;;0.10;0.10;;;22.40;93.90;;;;;;5038482;28;20021;-73
2023/07/14 00:36:44;;;;;;;0.10;0.10;;;22.40;94.00;;;;;;5038414;28;20059;-78
2023/07/14 00:39:12;;;;;;;0.10;0.10;;;22.60;94.00;;;;;;5037042;28;20045;-77
2023/07/14 00:41:38;;;;;;;0.20;0.20;;;;;;;;;;5036380;28;20299;-74
2023/07/14 00:44:04;;;;;;;0.10;0.10;;;22.70;93.50;;;;;;5038092;28;20329;-77
2023/07/14 00:46:32;;;;;;;0.30;0.30;;;22.70;94.40;;;;;;5038204;28;20110;-73
2023/07/14 00:49:02;;;;;;;0.10;0.10;;;23.00;93.40;;;;;;5038536;28;20021;-76
2023/07/14 00:51:35;;;;;;;0.10;0.10;;;23.00;93.60;;;;;;5038560;28;20324;-75
2023/07/14 00:54:02;;;;;;;0.20;0.20;;;23.10;93.90;;;;;;5038618;28;20017;-77
2023/07/14 00:56:43;;;;;;;0.10;0.10;;;23.20;93.50;;;;;;5038161;28;20045;-79
2023/07/14 00:59:15;;;;;;;0.10;0.10;;;23.30;93.30;;;;;;5038074;28;20059;-73
2023/07/14 01:02:19;;;;;;;0.10;0.10;;;23.50;93.30;;;;;;5038198;28;20033;-73
2023/07/14 01:04:51;;;;;;;0.10;0.10;;;23.60;93.20;;;;;;5041252;28;20404;-74
2023/07/14 01:07:19;;;;;;;0.10;0.10;;;23.60;93.20;;;;;;5039983;28;20017;-74
2023/07/14 01:09:46;;;;;;;1.75;0.82;;;23.70;93.00;;;;;;5041812;28;20076;-77
2023/07/14 01:12:18;;;;;;;0.10;0.10;;;23.80;93.00;;;;;;5042072;28;20256;-73
2023/07/14 01:14:46;;;;;;;0.40;0.40;;;24.10;93.00;;;;;;5039353;28;20271;-74
2023/07/14 01:17:13;;;;;;;1.23;1.17;;;23.90;92.80;;;;;;5037368;28;20036;-78
2023/07/14 01:19:54;;;;;;;3.20;2.90;;;23.90;92.80;;;;;;5038310;28;20341;-74
2023/07/14 01:22:39;;;;;;;0.55;0.55;;;23.90;92.90;;;;;;5038163;28;20659;-73
2023/07/14 01:25:27;;;;;;;0.52;0.50;;;23.70;93.50;;;;;;5036370;28;20252;-82
2023/07/14 01:27:53;;;;;;;1.13;0.65;;;23.10;94.10;;;;;;5037934;28;20027;-76
2023/07/14 01:30:20;;;;;;;1.48;1.38;;;23.70;94.40;;;;;;5037728;28;20040;-80
2023/07/14 01:32:48;;;;;;;1.35;1.27;;;23.80;94.10;;;;;;5037459;28;20017;-76
2023/07/14 01:35:16;;;;;;;0.38;0.30;;;23.70;94.00;;;;;;5037656;28;20023;-80
2023/07/14 01:37:42;;;;;;;0.73;0.70;;;23.80;94.00;;;;;;5036152;28;20043;-75
2023/07/14 01:40:12;;;;;;;0.43;0.43;;;23.70;94.30;;;;;;5037625;28;20025;-75
2023/07/14 01:42:51;;;;;;;0.32;0.32;;;24.00;94.70;;;;;;5037614;28;20021;-77
2023/07/14 01:45:19;;;;;;;2.90;2.65;;;23.80;94.40;;;;;;5037537;28;20508;-83
2023/07/14 01:47:49;;;;;;;0.90;0.90;;;23.80;94.50;;;;;;5036053;28;20055;-76
2023/07/14 01:50:30;;;;;;;0.15;0.15;;;23.80;94.80;;;;;;5037509;28;20043;-75
2023/07/14 01:53:00;;;;;;;0.13;0.13;;;23.90;94.90;;;;;;5037053;28;20033;-76
2023/07/14 01:55:32;;;;;;;0.10;0.10;;;23.90;95.00;;;;;;5036944;28;20013;-75
2023/07/14 01:58:01;;;;;;;0.10;0.10;;;23.80;95.10;;;;;;5037128;28;20037;-77
2023/07/14 02:00:27;;;;;;;0.60;0.60;;;23.70;95.50;;;;;;5037359;28;20029;-74
2023/07/14 02:02:53;;;;;;;0.10;0.10;;;23.50;96.30;;;;;;5035897;28;20071;-76
2023/07/14 02:05:37;;;;;;;3.97;3.72;;;23.40;96.50;;;;;;5038285;28;20217;-79
2023/07/14 02:08:06;;;;;;;0.10;0.10;;;23.50;96.70;;;;;;5037836;28;20082;-77
2023/07/14 02:10:35;;;;;;;0.10;0.10;;;23.40;97.00;;;;;;5036689;28;20052;-81
2023/07/14 02:13:05;;;;;;;0.10;0.10;;;23.40;97.10;;;;;;5037767;28;20029;-79
2023/07/14 02:15:33;;;;;;;0.65;0.63;;;23.50;97.40;;;;;;5037941;28;20597;-75
2023/07/14 02:18:01;;;;;;;0.10;0.10;;;23.50;97.60;;;;;;5036387;28;20033;-75
2023/07/14 02:20:29;;;;;;;0.10;0.10;;;23.50;98.30;;;;;;5037187;28;20195;-82
2023/07/14 02:22:57;;;;;;;0.15;0.15;;;23.40;98.40;;;;;;5037714;28;20487;-79
2023/07/14 02:25:27;;;;;;;0.17;0.17;;;23.40;98.80;;;;;;5037217;28;20067;-76
2023/07/14 02:27:53;;;;;;;0.10;0.10;;;23.40;99.20;;;;;;5037017;28;20305;-76
2023/07/14 02:30:21;;;;;;;0.10;0.10;;;23.70;99.40;;;;;;5037308;28;20359;-78
2023/07/14 02:33:00;;;;;;;2.47;2.28;;;23.30;99.80;;;;;;5036826;28;20063;-80
2023/07/14 02:35:36;;;;;;;0.43;0.43;;;23.40;99.90;;;;;;5037316;28;20267;-75
2023/07/14 02:38:10;;;;;;;0.10;0.10;;;23.30;99.90;;;;;;5035430;28;20033;-72
2023/07/14 02:40:52;;;;;;;0.10;0.10;;;23.20;99.90;;;;;;5036526;28;20059;-77
2023/07/14 02:43:19;;;;;;;0.10;0.10;;;23.20;99.90;;;;;;5037306;28;20428;-75
2023/07/14 02:45:56;;;;;;;0.10;0.10;;;23.20;99.90;;;;;;5036028;28;20511;-87
2023/07/14 02:48:43;;;;;;;0.45;0.45;;;23.40;99.90;;;;;;5036912;28;20351;-73
2023/07/14 02:51:10;;;;;;;0.10;0.10;;;23.40;99.90;;;;;;5036732;28;20431;-77
2023/07/14 02:53:36;;;;;;;0.17;0.17;;;23.40;99.90;;;;;;5036412;28;20100;-75
2023/07/14 02:56:03;;;;;;;0.10;0.10;;;23.40;99.90;;;;;;5036710;28;20060;-73
2023/07/14 02:58:29;;;;;;;0.10;0.10;;;23.40;99.90;;;;;;5036533;28;20288;-78
2023/07/14 03:00:55;;;;;;;0.82;0.77;;;23.30;99.90;;;;;;5036822;28;20045;-84
2023/07/14 03:03:22;;;;;;;0.10;0.10;;;23.30;99.90;;;;;;5037092;28;20537;-77
2023/07/14 03:05:49;;;;;;;1.08;0.82;;;23.20;99.90;;;;;;5038447;28;20580;-82
2023/07/14 03:08:16;;;;;;;0.10;0.10;;;23.30;99.90;;;;;;5039208;28;20037;-76
2023/07/14 03:10:47;;;;;;;0.40;0.40;;;23.20;99.90;;;;;;5040823;28;20037;-77
2023/07/14 03:13:14;;;;;;;0.13;0.13;;;23.20;99.90;;;;;;5040682;28;20032;-83
2023/07/14 03:15:42;;;;;;;0.20;0.20;;;23.10;99.90;;;;;;5040794;28;20063;-77
2023/07/14 03:18:08;;;;;;;0.43;0.43;;;23.10;99.90;;;;;;5040649;28;20017;-80
2023/07/14 03:20:34;;;;;;;0.20;0.20;;;23.10;99.90;;;;;;5040412;28;20414;-82
2023/07/14 03:23:00;;;;;;;0.85;0.85;;;23.10;99.90;;;;;;5040936;28;20027;-78
2023/07/14 03:25:26;;;;;;;0.10;0.10;;;23.20;99.90;;;;;;5039025;28;20522;-80
2023/07/14 03:27:52;;;;;;;0.30;0.30;;;23.10;99.90;;;;;;5040768;28;20220;-77
2023/07/14 03:30:19;;;;;;;0.30;0.30;;;23.10;99.90;;;;;;5040597;28;20506;-82
2023/07/14 03:32:44;;;;;;;0.10;0.10;;;23.10;99.90;;;;;;5040327;28;20543;-78
2023/07/14 03:35:10;;;;;;;0.25;0.25;;;23.10;99.90;;;;;;5040521;28;20116;-78
2023/07/14 03:37:36;;;;;;;0.30;0.30;;;23.10;99.90;;;;;;5039898;28;20704;-77
2023/07/14 03:40:04;;;;;;;0.10;0.10;;;23.10;99.90;;;;;;5039913;28;20561;-76
2023/07/14 03:42:30;;;;;;;1.65;1.48;;;23.20;99.90;;;;;;5040369;28;20021;-76
2023/07/14 03:44:56;;;;;;;0.38;0.38;;;23.10;99.90;;;;;;5040052;28;20131;-80
2023/07/14 03:47:22;;;;;;;0.20;0.20;;;23.20;99.90;;;;;;5040141;28;20265;-77
2023/07/14 03:49:48;;;;;;;1.08;1.08;;;23.20;99.90;;;;;;5040005;28;20530;-74
2023/07/14 03:52:13;;;;;;;4.03;3.80;;;23.20;99.90;;;;;;5038124;28;20222;-79
2023/07/14 03:54:39;;;;;;;1.63;1.25;;;23.30;99.90;;;;;;5039740;28;20031;-81
2023/07/14 03:57:05;;;;;;;1.17;1.13;;;23.30;99.90;;;;;;5039396;28;20021;-75
2023/07/14 03:59:31;;;;;;;0.52;0.52;;;23.30;99.90;;;;;;5039591;28;20031;-78
2023/07/14 04:01:57;;;;;;;0.63;0.45;;;23.40;99.90;;;;;;5039581;28;20029;-75
2023/07/14 04:04:23;;;;;;;0.35;0.35;;;23.30;99.90;;;;;;5039522;28;20137;-80
2023/07/14 04:06:49;;;;;;;0.32;0.32;;;23.40;99.90;;;;;;5039550;28;20343;-75
2023/07/14 04:09:15;;;;;;;0.82;0.82;;;23.40;99.90;;;;;;5039474;28;20032;-75
2023/07/14 04:11:41;;;;;;;0.10;0.10;;;23.40;99.90;;;;;;5039598;28;20507;-77
2023/07/14 04:14:08;;;;;;;0.40;0.40;;;23.40;99.90;;;;;;5038058;28;20041;-80
2023/07/14 04:16:35;;;;;;;0.30;0.30;;;23.50;99.90;;;;;;5038282;28;20014;-77
2023/07/14 04:19:02;;;;;;;0.30;0.30;;;23.20;99.90;;;;;;5039446;28;20404;-81
2023/07/14 04:21:29;;;;;;;0.30;0.30;;;23.20;99.90;;;;;;5039361;28;20031;-79
2023/07/14 04:23:56;;;;;;;0.20;0.20;;;23.70;99.90;;;;;;5039475;28;20021;-79
2023/07/14 04:26:23;;;;;;;0.20;0.20;;;23.40;99.90;;;;;;5039400;28;20032;-81
2023/07/14 04:28:49;;;;;;;0.68;0.68;;;23.40;99.90;;;;;;5039662;28;20051;-78
2023/07/14 04:31:15;;;;;;;0.10;0.10;;;23.40;99.90;;;;;;5041249;28;20224;-76
2023/07/14 04:33:45;;;;;;;0.30;0.30;;;23.50;99.90;;;;;;5041128;28;20289;-77
2023/07/14 04:36:12;;;;;;;2.40;2.22;;;23.50;99.90;;;;;;5040902;28;20226;-74
2023/07/14 04:38:41;;;;;;;0.10;0.10;;;23.50;99.90;;;;;;5040548;28;20450;-79
2023/07/14 04:41:06;;;;;;;0.73;0.70;;;23.60;99.90;;;;;;5039948;28;20033;-77
2023/07/14 04:43:33;;;;;;;0.47;0.47;;;22.60;99.90;;;;;;5039972;28;20028;-74
2023/07/14 04:45:59;;;;;;;0.28;0.28;;;23.60;99.90;;;;;;5039009;28;20025;-75
2023/07/14 04:48:25;;;;;;;1.65;1.65;;;23.60;99.90;;;;;;5039125;28;20066;-84
2023/07/14 04:50:51;;;;;;;0.30;0.30;;;23.70;99.90;;;;;;5039018;28;20025;-81
2023/07/14 04:53:19;;;;;;;0.52;0.52;;;23.70;99.90;;;;;;5039058;28;20494;-77
2023/07/14 04:55:46;;;;;;;0.15;0.15;;;23.80;99.90;;;;;;5037536;28;20079;-78
2023/07/14 04:58:15;;;;;;;2.38;1.65;;;23.70;99.90;;;;;;5038653;28;20047;-77
2023/07/14 05:00:42;;;;;;;0.10;0.10;;;23.70;99.90;;;;;;5038441;28;20163;-79
2023/07/14 05:03:08;;;;;;;0.10;0.10;;;23.80;99.90;;;;;;5038930;28;20111;-77
2023/07/14 05:05:34;;;;;;;0.40;0.40;;;23.90;99.90;;;;;;5038551;28;20198;-83
2023/07/14 05:08:01;;;;;;;6.70;3.78;;;23.90;99.90;;;;;;5038236;28;20139;-84
2023/07/14 05:10:28;;;;;;;0.55;0.55;;;25.30;99.90;;;;;;5038532;28;20033;-77
2023/07/14 05:12:56;;;;;;;0.80;0.43;;;24.00;99.90;;;;;;5038541;28;20025;-76
2023/07/14 05:15:24;;;;;;;0.73;0.68;;;24.00;99.90;;;;;;5038410;28;20025;-81
2023/07/14 05:17:51;;;;;;;0.30;0.30;;;24.10;99.90;;;;;;5038371;28;20024;-81
2023/07/14 05:20:18;;;;;;;1.20;1.10;;;24.10;99.90;;;;;;5038130;28;20495;-77
2023/07/14 05:22:47;;;;;;;0.10;0.10;;;24.20;99.90;;;;;;5038270;28;20052;-84
2023/07/14 05:25:14;;;;;;;0.55;0.55;;;24.20;99.90;;;;;;5038242;28;20027;-85
2023/07/14 05:27:43;;;;;;;0.17;0.17;;;24.20;99.90;;;;;;5037926;28;20619;-78
2023/07/14 05:30:11;;;;;;;0.40;0.40;;;23.70;99.90;;;;;;5038006;28;20017;-79
2023/07/14 05:32:38;;;;;;;2.08;1.95;;;24.30;99.90;;;;;;5038868;28;20054;-75
2023/07/14 05:35:04;;;;;;;0.17;0.17;;;24.30;99.90;;;;;;5039010;28;20495;-77
2023/07/14 05:37:30;;;;;;;0.80;0.80;;;24.30;99.90;;;;;;5038038;28;20024;-75
2023/07/14 05:39:55;;;;;;;1.02;1.00;;;24.30;99.90;;;;;;5037213;28;20017;-74
2023/07/14 05:42:21;;;;;;;1.48;1.42;;;24.30;99.90;;;;;;5036442;28;20503;-76
2023/07/14 05:44:47;;;;;;;1.42;1.35;;;24.30;99.90;;;;;;5037637;28;20090;-82
2023/07/14 05:47:14;;;;;;;0.43;0.43;;;24.30;99.90;;;;;;5037802;28;20033;-74
2023/07/14 05:49:39;;;;;;;0.75;0.73;;;24.40;99.90;;;;;;5037203;28;20025;-76
2023/07/14 05:52:10;;;;;;;0.52;0.52;;;24.40;99.90;;;;;;5037787;28;20522;-77
2023/07/14 05:54:36;;;;;;;0.32;0.32;;;24.40;99.90;;;;;;5037517;28;20048;-81
2023/07/14 05:57:02;;;;;;;1.80;1.40;;;24.30;99.90;;;;;;5037137;28;20556;-79
2023/07/14 05:59:28;;;;;;;0.10;0.10;;;24.30;99.90;;;;;;5038057;28;20021;-74
2023/07/14 06:01:53;;;;;;;0.57;0.57;;;24.30;99.90;;;;;;5038716;28;20296;-81
2023/07/14 06:04:19;;;;;;;0.32;0.32;;;24.40;99.90;;;;;;5036231;28;20215;-77
2023/07/14 06:06:45;;;;;;;0.10;0.10;;;24.50;99.90;;;;;;5037777;28;20290;-79
2023/07/14 06:09:13;;;;;;;0.10;0.10;;;24.50;99.90;;;;;;5036884;28;20036;-74
2023/07/14 06:11:40;;;;;;;2.38;1.88;;;24.60;99.90;;;;;;5036904;28;20025;-77
2023/07/14 06:14:06;;;;;;;0.30;0.30;;;25.00;99.90;;;;;;5037151;28;20021;-80
2023/07/14 06:16:32;;;;;;;4.00;3.70;;;24.70;99.90;;;;;;5036690;28;20086;-81
2023/07/14 06:18:58;;;;;;;1.85;1.70;;;24.90;99.90;;;;;;5037136;28;20515;-74
2023/07/14 06:21:24;;;;;;;1.50;1.15;;;24.90;99.90;;;;;;5036701;28;20148;-79
2023/07/14 06:23:50;;;;;;;0.22;0.15;;;25.00;99.90;;;;;;5036951;28;20651;-74
2023/07/14 06:26:15;;;;;;;0.57;0.57;;;25.10;99.90;;;;;;5036834;28;20025;-83
2023/07/14 06:28:42;;;;;;;0.20;0.20;;;25.20;99.90;;;;;;5036949;28;20021;-78
2023/07/14 06:31:11;;;;;;;0.95;0.95;;;25.30;99.90;;;;;;5037017;28;20447;-83
2023/07/14 06:33:38;;;;;;;1.00;1.00;;;25.40;99.90;;;;;;5036990;28;20025;-80
2023/07/14 06:36:04;;;;;;;0.38;0.38;;;25.50;99.90;;;;;;5036532;28;20078;-77
2023/07/14 06:38:30;;;;;;;2.45;2.35;;;25.50;99.90;;;;;;5037155;28;20020;-74
2023/07/14 06:40:59;;;;;;;0.22;0.20;;;25.60;99.90;;;;;;5038680;28;20460;-78
2023/07/14 06:43:25;;;;;;;2.13;1.63;;;25.60;99.90;;;;;;5040856;28;20078;-77
2023/07/14 06:45:52;;;;;;;0.10;0.10;;;25.70;99.90;;;;;;5040678;28;20017;-76
2023/07/14 06:48:17;;;;;;;0.57;0.55;;;25.70;99.90;;;;;;5040815;28;20400;-74
2023/07/14 06:50:45;;;;;;;0.10;0.10;;;25.70;99.90;;;;;;5041474;28;20112;-78
2023/07/14 06:53:11;;;;;;;0.17;0.17;;;25.80;99.90;;;;;;5040598;28;20100;-75
2023/07/14 06:55:38;;;;;;;2.20;2.00;;;25.70;99.90;;;;;;5040575;28;20351;-76
2023/07/14 06:58:06;;;;;;;0.47;0.47;;;25.70;99.90;;;;;;5040187;28;20345;-74
2023/07/14 07:00:33;;;;;;;0.20;0.20;;;25.70;99.90;;;;;;5040213;28;20025;-79
2023/07/14 07:02:59;;;;;;;2.72;2.53;;;25.70;99.90;;;;;;5041596;28;20028;-74
2023/07/14 07:05:25;;;;;;;0.22;0.22;;;25.70;99.90;;;;;;5040908;28;20112;-80
2023/07/14 07:07:53;;;;;;;1.10;1.00;;;25.70;99.90;;;;;;5041098;28;20057;-83
2023/07/14 07:10:19;;;;;;;0.20;0.20;;;25.70;99.90;;;;;;5041104;28;20025;-78
2023/07/14 07:12:45;;;;;;;1.20;1.10;;;25.80;99.90;;;;;;5041855;28;20064;-78
2023/07/14 07:15:10;;;;;;;0.10;0.10;;;25.70;99.90;;;;;;5041055;28;20045;-81
2023/07/14 07:17:39;;;;;;;0.88;0.88;;;25.80;99.90;;;;;;5040566;28;20098;-75
2023/07/14 07:20:09;;;;;;;0.20;0.20;;;25.70;99.90;;;;;;5040827;28;20009;-80
2023/07/14 07:22:36;;;;;;;0.35;0.35;;;25.60;99.90;;;;;;5041179;28;20029;-82
2023/07/14 07:25:02;;;;;;;6.03;3.40;;;25.70;99.90;;;;;;5040689;28;20013;-86
2023/07/14 07:27:28;;;;;;;0.98;0.98;;;25.80;99.90;;;;;;5041097;28;20283;-83
2023/07/14 07:29:54;;;;;;;0.52;0.40;;;25.70;99.90;;;;;;5040700;28;20016;-76
2023/07/14 07:32:19;;;;;;;0.30;0.30;;;25.60;99.90;;;;;;5041453;28;20563;-81
2023/07/14 07:34:45;;;;;;;1.67;0.95;;;25.70;99.90;;;;;;5040908;28;20017;-75
2023/07/14 07:37:12;;;;;;;1.65;0.85;;;25.90;99.90;;;;;;5041102;28;20039;-81
2023/07/14 07:39:38;;;;;;;0.20;0.20;;;26.00;99.90;;;;;;5042126;28;20033;-84
2023/07/14 07:42:04;;;;;;;0.20;0.20;;;26.10;99.90;;;;;;5042026;28;20091;-81
2023/07/14 07:44:31;;;;;;;0.10;0.10;;;26.10;99.90;;;;;;5042070;28;20014;-79
2023/07/14 07:46:57;;;;;;;1.55;0.95;;;26.10;99.90;;;;;;5041147;28;20084;-75
2023/07/14 07:49:23;;;;;;;0.93;0.88;;;26.00;99.90;;;;;;5040554;28;20518;-75
2023/07/14 07:51:48;;;;;;;0.98;0.98;;;26.10;99.90;;;;;;5038957;28;20116;-76
2023/07/14 07:54:15;;;;;;;0.10;0.10;;;26.30;99.90;;;;;;5039759;28;20021;-76
2023/07/14 07:56:43;;;;;;;1.17;1.08;;;26.30;99.90;;;;;;5040081;28;20050;-76
2023/07/14 07:59:15;;;;;;;0.22;0.22;;;26.50;99.90;;;;;;5039443;28;20038;-81
2023/07/14 08:01:42;;;;;;;25.17;1.63;;;26.50;99.90;;;;;;5038537;28;20572;-75
2023/07/14 08:04:09;;;;;;;0.38;0.20;;;26.60;99.90;;;;;;5039251;28;20075;-79
2023/07/14 08:06:36;;;;;;;0.45;0.45;;;26.60;99.90;;;;;;5042863;28;20635;-75
2023/07/14 08:09:04;;;;;;;1.55;1.45;;;26.50;99.90;;;;;;5039611;28;20095;-81
2023/07/14 08:11:30;;;;;;;0.15;0.15;;;26.80;99.90;;;;;;5039337;28;20660;-74
2023/07/14 08:13:59;;;;;;;6.05;1.38;;;26.90;99.90;;;;;;5037866;28;20060;-83
2023/07/14 08:16:25;;;;;;;0.57;0.57;;;27.10;99.90;;;;;;5038395;28;20017;-80
2023/07/14 08:18:51;;;;;;;0.73;0.65;;;27.00;99.90;;;;;;5038231;28;20049;-74
2023/07/14 08:21:17;;;;;;;1.08;0.98;;;26.80;99.90;;;;;;5039215;28;20750;-76
2023/07/14 08:23:44;;;;;;;1.63;1.52;;;27.70;99.90;;;;;;5039394;28;20014;-77
2023/07/14 08:26:11;;;;;;;1.70;1.30;;;27.40;99.90;;;;;;5039071;28;20017;-76
2023/07/14 08:28:37;;;;;;;7.35;1.15;;;27.50;99.90;;;;;;5039413;28;20100;-76
2023/07/14 08:31:08;;;;;;;0.10;0.10;;;27.50;99.90;;;;;;5039449;28;20025;-74
2023/07/14 08:33:35;;;;;;;2.00;1.90;;;27.50;99.90;;;;;;5037733;28;20017;-79
2023/07/14 08:36:03;;;;;;;2.03;1.90;;;27.70;99.90;;;;;;5039283;28;20040;-80
2023/07/14 08:38:33;;;;;;;2.60;2.38;;;27.80;99.90;;;;;;5038776;28;20032;-80
2023/07/14 08:41:09;;;;;;;0.80;0.80;;;27.90;99.90;;;;;;5039311;28;20029;-78
2023/07/14 08:44:02;;;;;;;0.52;0.52;;;28.00;99.90;;;;;;5038926;28;20104;-75
2023/07/14 08:46:43;;;;;;;0.30;0.30;;;28.10;99.90;;;;;;5038996;28;20032;-79
2023/07/14 08:49:24;;;;;;;0.10;0.10;;;28.30;99.90;;;;;;5039487;28;20029;-76
2023/07/14 08:52:04;;;;;;;1.42;1.33;;;28.30;99.90;;;;;;5039529;28;20021;-74
2023/07/14 08:54:46;;;;;;;0.25;0.25;;;28.40;99.90;;;;;;5038672;28;20566;-73
2023/07/14 08:57:23;;;;;;;0.75;0.75;;;28.50;99.90;;;;;;5038691;28;20037;-73
2023/07/14 08:59:54;;;;;;;3.10;1.20;;;28.60;99.90;;;;;;5037468;28;20017;-73
2023/07/14 09:02:23;;;;;;;0.75;0.75;;;28.70;99.90;;;;;;5038703;28;20021;-74
2023/07/14 09:05:03;;;;;;;0.13;0.13;;;28.80;99.90;;;;;;5038367;28;20013;-73
2023/07/14 09:07:29;;;;;;;0.63;0.63;;;28.90;99.90;;;;;;5038478;28;20541;-77
2023/07/14 09:09:55;;;;;;;2.05;1.88;;;29.00;99.90;;;;;;5037339;28;20629;-76
2023/07/14 09:12:36;;;;;;;0.43;0.43;;;29.20;99.90;;;;;;5038385;28;20017;-78
2023/07/14 09:15:13;;;;;;;0.22;0.22;;;29.20;99.90;;;;;;5038373;28;20052;-79
2023/07/14 09:17:57;;;;;;;1.45;0.88;;;29.30;99.90;;;;;;5038217;28;20013;-79
2023/07/14 09:20:42;;;;;;;0.20;0.20;;;29.60;99.90;;;;;;5038334;28;20060;-79
2023/07/14 09:23:40;;;;;;;0.40;0.40;;;29.60;99.90;;;;;;5037942;28;20025;-80
2023/07/14 09:26:15;;;;;;;1.38;1.05;;;29.50;99.90;;;;;;5038068;28;20021;-78
2023/07/14 09:28:44;;;;;;;1.67;1.55;;;29.70;99.90;;;;;;5037794;28;20043;-80
2023/07/14 09:31:19;;;;;;;0.55;0.55;;;29.90;99.90;;;;;;5036904;28;20083;-75
2023/07/14 09:33:50;;;;;;;3.40;1.70;;;30.10;99.80;;;;;;5037615;28;20097;-76
2023/07/14 09:36:21;;;;;;;1.42;1.30;;;30.30;99.60;;;;;;5037780;28;20029;-77
2023/07/14 09:38:53;;;;;;;5.30;2.72;;;30.20;99.40;;;;;;5037647;28;20116;-73
2023/07/14 09:41:23;;;;;;;10.70;4.68;;;30.10;99.50;;;;;;5037799;28;20674;-80
2023/07/14 09:43:55;;;;;;;1.88;1.50;;;29.90;99.90;;;;;;5037546;28;20013;-77
2023/07/14 09:46:21;;;;;;;0.82;0.82;;;30.60;99.90;;;;;;5038903;28;20028;-74
2023/07/14 09:48:57;;;;;;;0.00;0.00;;;29.50;99.90;;;;;;5037502;28;20017;-72
2023/07/14 09:51:23;;;;;;;0.90;0.85;;;29.40;99.90;;;;;;5037294;28;20109;-76
2023/07/14 09:54:10;;;;;;;0.40;0.40;;;29.30;99.90;;;;;;5037861;28;20721;-78
2023/07/14 09:56:38;;;;;;;1.15;0.68;;;29.50;99.90;;;;;;5037443;28;20017;-81
2023/07/14 09:59:19;;;;;;;1.45;1.35;;;29.70;99.90;;;;;;5035666;28;20045;-81
2023/07/14 10:01:53;;;;;;;1.25;0.90;;;29.90;99.80;;;;;;5037195;28;20033;-80
2023/07/14 10:04:19;;;;;;;1.90;1.80;;;30.10;99.70;;;;;;5037110;28;20023;-75
2023/07/14 10:06:49;;;;;;;1.17;1.13;;;30.10;99.70;;;;;;5037078;28;20111;-76
2023/07/14 10:09:16;;;;;;;0.95;0.90;;;30.10;99.90;;;;;;5035798;28;20083;-80
2023/07/14 10:11:47;;;;;;;1.20;1.15;;;30.00;99.80;;;;;;5036909;28;20021;-78
2023/07/14 10:14:35;;;;;;;3.00;1.15;;;30.00;99.80;;;;;;5036795;28;20029;-77
2023/07/14 10:17:02;;;;;;;0.30;0.30;;;30.30;99.90;;;;;;5037198;28;20021;-82
2023/07/14 10:19:38;;;;;;;2.95;1.45;;;30.40;99.70;;;;;;5035801;28;20013;-75
2023/07/14 10:22:14;;;;;;;1.38;1.27;;;30.60;99.30;;;;;;5036677;28;20094;-76
2023/07/14 10:24:57;;;;;;;2.75;1.92;;;30.50;99.20;;;;;;5035914;28;20021;-81
2023/07/14 10:27:40;;;;;;;1.45;1.10;;;30.50;99.10;;;;;;5036982;28;20028;-78
2023/07/14 10:30:11;;;;;;;0.30;0.30;;;30.20;99.90;;;;;;5036889;28;20594;-79
2023/07/14 10:32:51;;;;;;;3.75;2.20;;;30.40;99.70;;;;;;5037245;28;20158;-79
2023/07/14 10:35:17;;;;;;;1.08;0.77;;;30.70;99.20;;;;;;5037500;28;20025;-78
2023/07/14 10:38:02;;;;;;;1.23;0.85;;;31.30;98.90;;;;;;5037161;28;20030;-77
2023/07/14 10:40:33;;;;;;;2.40;0.75;;;31.20;98.40;;;;;;5035340;28;20112;-75
2023/07/14 10:43:04;;;;;;;0.55;0.55;;;31.10;97.90;;;;;;5036919;28;20083;-80
2023/07/14 10:45:32;;;;;;;0.98;0.75;;;30.90;98.00;;;;;;5037372;28;20655;-76
2023/07/14 10:48:14;;;;;;;0.45;0.45;;;30.90;98.20;;;;;;5037363;28;20606;-77
2023/07/14 10:50:54;;;;;;;1.05;0.95;;;30.50;98.10;;;;;;5037643;28;20017;-80
2023/07/14 10:53:37;;;;;;;1.33;1.20;;;30.50;98.10;;;;;;5037869;28;20024;-83
2023/07/14 10:56:11;;;;;;;0.38;0.35;;;30.90;98.30;;;;;;5037499;28;20762;-80
2023/07/14 10:58:44;;;;;;;1.80;1.13;;;31.30;98.00;;;;;;5037482;28;20044;-74
2023/07/14 11:01:25;;;;;;;0.57;0.57;;;32.00;97.40;;;;;;5037789;28;20111;-80
2023/07/14 11:03:59;;;;;;;0.40;0.40;;;32.20;95.60;;;;;;5037818;28;20079;-75
2023/07/14 11:06:28;;;;;;;2.42;1.73;;;32.20;95.70;;;;;;5037504;28;20076;-80
2023/07/14 11:08:55;;;;;;;1.13;1.02;;;32.00;95.10;;;;;;5037595;28;20110;-79
2023/07/14 11:11:39;;;;;;;0.52;0.52;;;31.80;95.40;;;;;;5036254;28;20514;-75
2023/07/14 11:14:25;;;;;;;3.70;0.68;;;31.60;95.40;;;;;;5037456;28;20070;-76
2023/07/14 11:17:20;;;;;;;0.47;0.47;;;31.90;95.40;;;;;;5037494;28;20297;-79
2023/07/14 11:20:08;;;;;;;0.55;0.55;;;32.20;95.20;;;;;;5037115;28;20021;-75
2023/07/14 11:22:53;;;;;;;2.70;1.33;;;32.50;94.80;;;;;;5035895;28;20029;-79
2023/07/14 11:25:31;;;;;;;0.03;0.03;;;32.80;94.40;;;;;;5036775;28;20694;-76
2023/07/14 11:28:17;;;;;;;1.15;0.80;;;33.10;94.40;;;;;;5039840;28;20304;-81
2023/07/14 11:30:48;;;;;;;0.57;0.30;;;33.30;93.70;;;;;;5041082;28;20056;-74
2023/07/14 11:33:21;;;;;;;3.33;1.38;;;33.50;93.70;;;;;;5041420;28;20025;-75
2023/07/14 11:35:53;;;;;;;1.02;0.60;;;33.80;93.10;;;;;;5042207;28;20561;-81
2023/07/14 11:38:29;;;;;;;1.40;0.70;;;33.90;92.40;;;;;;5043336;28;20097;-80
2023/07/14 11:40:55;;;;;;;0.85;0.82;;;34.20;91.90;;;;;;5041660;28;20037;-77
2023/07/14 11:43:25;;;;;;;0.47;0.32;;;34.10;91.10;;;;;;5043370;28;20055;-84
2023/07/14 11:46:06;;;;;;;2.17;1.15;;;33.40;90.80;;;;;;5044172;28;20097;-80
2023/07/14 11:49:01;;;;;;;0.70;0.63;;;34.50;91.00;;;;;;5043280;28;20013;-75
2023/07/14 11:51:48;;;;;;;0.63;0.63;;;34.40;90.40;;;;;;5041216;28;20022;-77
2023/07/14 11:54:19;;;;;;;2.90;2.15;;;34.70;90.00;;;;;;5042437;28;20561;-75
2023/07/14 11:57:00;;;;;;;1.15;1.05;;;35.00;88.90;;;;;;5042662;28;20021;-75
2023/07/14 11:59:29;;;;;;;2.57;1.17;;;35.10;88.60;;;;;;5042364;28;20040;-79
2023/07/14 12:01:59;;;;;;;2.13;1.05;;;35.20;88.30;;;;;;5041583;28;20036;-85
2023/07/14 12:04:33;;;;;;;0.98;0.60;;;35.10;88.10;;;;;;5040939;28;20078;-79
2023/07/14 12:07:19;;;;;;;5.78;3.03;;;35.40;88.30;;;;;;5040552;28;20665;-74
2023/07/14 12:10:08;;;;;;;2.22;1.15;;;35.40;87.10;;;;;;5040326;28;20059;-75
2023/07/14 12:12:34;;;;;;;5.68;1.05;;;35.20;85.90;;;;;;5040388;28;20021;-75
2023/07/14 12:15:00;;;;;;;1.08;0.85;;;34.50;89.00;;;;;;5040515;28;20242;-77
2023/07/14 12:17:43;;;;;;;2.55;2.38;;;34.00;89.30;;;;;;5040610;28;20676;-79
2023/07/14 12:20:12;;;;;;;2.17;1.35;;;33.60;89.70;;;;;;5040398;28;20644;-76
2023/07/14 12:22:49;;;;;;;1.80;1.65;;;33.10;90.40;;;;;;5038411;28;20116;-76
2023/07/14 12:25:18;;;;;;;0.75;0.73;;;33.40;90.10;;;;;;5040488;28;20024;-74
2023/07/14 12:27:52;;;;;;;1.10;0.73;;;33.90;90.10;;;;;;5040194;28;20028;-77
2023/07/14 12:30:25;;;;;;;2.45;1.38;;;34.30;89.10;;;;;;5038781;28;20021;-75
2023/07/14 12:32:55;;;;;;;0.40;0.40;;;34.50;88.10;;;;;;5039517;28;20045;-78
2023/07/14 12:35:24;;;;;;;1.75;1.08;;;35.10;87.30;;;;;;5038558;28;20052;-79
2023/07/14 12:37:50;;;;;;;0.63;0.63;;;35.30;86.60;;;;;;5038481;28;20041;-75
2023/07/14 12:40:22;;;;;;;2.40;0.98;;;35.80;85.30;;;;;;5039717;28;20114;-83
2023/07/14 12:42:50;;;;;;;;;;;36.20;84.70;;;;;;5039828;28;20750;-78
2023/07/14 12:45:18;;;;;;;2.67;1.83;;;36.70;84.00;;;;;;5039574;28;19915;-74
2023/07/14 12:47:49;;;;;;;2.53;1.23;;;36.90;82.90;;;;;;5039622;28;20175;-74
2023/07/14 12:50:25;;;;;;;2.45;2.03;;;37.30;81.60;;;;;;5039812;28;20028;-79
2023/07/14 12:52:51;;;;;;;1.95;1.20;;;37.90;81.50;;;;;;5040126;28;20017;-79
2023/07/14 12:55:20;;;;;;;0.98;0.68;;;38.30;80.00;;;;;;5039899;28;20017;-83
2023/07/14 12:57:48;;;;;;;1.60;1.02;;;38.80;78.50;;;;;;5039981;28;20047;-76
2023/07/14 13:00:19;;;;;;;4.97;3.47;;;39.00;76.60;;;;;;5039742;28;20012;-84
2023/07/14 13:02:45;;;;;;;0.50;0.50;;;38.80;76.90;;;;;;5039460;28;20186;-77
2023/07/14 13:05:12;;;;;;;0.45;0.45;;;38.60;76.70;;;;;;5039255;28;20104;-82